createdAt,value
2019-05-25T00:00:15.958Z,5.35
2019-05-25T00:02:46.514Z,5.90
2019-05-25T00:05:17.024Z,5.60
2019-05-25T00:07:49.520Z,5.20
2019-05-25T00:10:20.080Z,5.75
2019-05-25T00:12:50.489Z,5.10
2019-05-25T00:15:22.331Z,5.90
2019-05-25T00:17:54.736Z,5.35
2019-05-25T00:20:26.458Z,6.20
2019-05-25T00:22:57.782Z,5.57
2019-05-25T00:25:29.231Z,5.60
2019-05-25T00:28:01.217Z,5.30
2019-05-25T00:30:32.366Z,5.45
2019-05-25T00:33:03.705Z,5.30
2019-05-25T00:35:35.220Z,5.45
2019-05-25T00:38:05.455Z,5.73
2019-05-25T00:40:35.936Z,5.80
2019-05-25T00:43:07.369Z,6.00
2019-05-25T00:45:38.879Z,6.30
2019-05-25T00:48:09.972Z,6.20
2019-05-25T00:50:41.077Z,6.55
2019-05-25T00:53:11.940Z,6.40
2019-05-25T00:55:43.511Z,5.60
2019-05-25T00:58:15.427Z,5.50
2019-05-25T01:00:46.148Z,6.00
2019-05-25T01:03:17.252Z,5.20
2019-05-25T01:05:47.109Z,6.30
2019-05-25T01:10:47.182Z,6.40
2019-05-25T01:17:14.858Z,6.35
2019-05-25T01:19:47.224Z,6.50
2019-05-25T01:23:36.719Z,6.70
2019-05-25T01:26:08.073Z,6.50
2019-05-25T01:31:41.478Z,6.22
2019-05-25T01:34:12.283Z,6.60
2019-05-25T01:36:44.028Z,7.20
2019-05-25T01:39:14.787Z,6.90
2019-05-25T01:41:45.900Z,6.60
2019-05-25T01:44:16.678Z,6.50
2019-05-25T01:47:50.393Z,6.40
2019-05-25T01:52:53.031Z,6.90
2019-05-25T01:55:23.566Z,7.30
2019-05-25T01:57:54.913Z,7.60
2019-05-25T02:00:25.986Z,7.65
2019-05-25T02:02:57.638Z,7.65
2019-05-25T02:05:28.775Z,6.80
2019-05-25T02:08:00.302Z,6.50
2019-05-25T02:10:31.554Z,6.10
2019-05-25T02:13:02.028Z,6.65
2019-05-25T02:15:34.585Z,6.60
2019-05-25T02:18:05.076Z,6.40
2019-05-25T02:20:37.182Z,6.55
2019-05-25T02:24:06.830Z,6.60
2019-05-25T02:26:37.191Z,6.67
2019-05-25T02:29:08.324Z,7.00
2019-05-25T02:31:38.742Z,6.60
2019-05-25T02:34:07.685Z,6.60
2019-05-25T02:36:35.731Z,6.60
2019-05-25T02:41:44.844Z,6.92
2019-05-25T02:44:13.798Z,6.80
2019-05-25T02:46:44.094Z,7.00
2019-05-25T02:49:13.114Z,6.67
2019-05-25T02:51:41.184Z,6.40
2019-05-25T02:54:09.609Z,6.97
2019-05-25T02:56:38.734Z,6.70
2019-05-25T02:59:08.206Z,7.00
2019-05-25T03:01:37.525Z,6.40
2019-05-25T03:04:06.569Z,6.40
2019-05-25T03:06:35.678Z,6.30
2019-05-25T03:09:06.054Z,6.10
2019-05-25T03:11:37.295Z,6.55
2019-05-25T03:14:07.763Z,6.60
2019-05-25T03:16:38.805Z,6.60
2019-05-25T03:19:10.172Z,6.70
2019-05-25T03:21:42.010Z,6.60
2019-05-25T03:24:12.546Z,6.50
2019-05-25T03:26:43.549Z,7.10
2019-05-25T03:29:15.550Z,7.35
2019-05-25T03:31:46.913Z,6.53
2019-05-25T03:34:18.223Z,6.60
2019-05-25T03:36:49.480Z,6.00
2019-05-25T03:39:20.504Z,6.40
2019-05-25T03:41:51.747Z,6.40
2019-05-25T03:44:22.313Z,6.30
2019-05-25T03:46:54.253Z,6.20
2019-05-25T03:49:25.476Z,6.90
2019-05-25T03:51:57.245Z,6.50
2019-05-25T03:54:27.986Z,7.75
2019-05-25T03:56:58.849Z,6.75
2019-05-25T03:59:30.629Z,5.80
2019-05-25T04:02:01.686Z,6.93
2019-05-25T04:04:33.398Z,5.80
2019-05-25T04:07:04.629Z,7.00
2019-05-25T04:09:36.120Z,6.00
2019-05-25T04:12:06.958Z,6.40
2019-05-25T04:18:16.551Z,6.80
2019-05-25T04:20:46.053Z,6.50
2019-05-25T04:23:17.550Z,5.90
2019-05-25T04:26:43.273Z,6.00
2019-05-25T04:29:15.118Z,7.35
2019-05-25T04:31:46.660Z,6.90
2019-05-25T04:34:18.049Z,7.95
2019-05-25T04:36:50.094Z,6.90
2019-05-25T04:39:21.583Z,6.90
2019-05-25T04:41:53.835Z,6.60
2019-05-25T04:44:25.040Z,6.10
2019-05-25T04:46:56.409Z,5.90
2019-05-25T04:49:28.565Z,5.90
2019-05-25T04:53:07.136Z,7.20
2019-05-25T04:55:39.891Z,6.75
2019-05-25T04:58:10.761Z,6.00
2019-05-25T05:00:42.510Z,5.90
2019-05-25T05:03:13.691Z,6.10
2019-05-25T05:05:45.195Z,6.00
2019-05-25T05:08:16.577Z,5.85
2019-05-25T05:10:47.881Z,6.10
2019-05-25T05:13:19.111Z,6.10
2019-05-25T05:15:50.233Z,6.10
2019-05-25T05:18:21.301Z,6.05
2019-05-25T05:20:53.327Z,6.60
2019-05-25T05:23:24.723Z,7.25
2019-05-25T05:25:56.313Z,6.50
2019-05-25T05:28:27.436Z,5.97
2019-05-25T05:30:58.468Z,5.90
2019-05-25T05:33:29.929Z,6.35
2019-05-25T05:36:01.044Z,6.40
2019-05-25T05:38:32.727Z,6.10
2019-05-25T05:41:05.263Z,6.40
2019-05-25T05:48:22.763Z,6.55
2019-05-25T05:50:52.165Z,6.70
2019-05-25T05:53:21.562Z,6.87
2019-05-25T05:56:06.890Z,6.33
2019-05-25T05:58:37.675Z,7.90
2019-05-25T06:01:07.650Z,9.00
2019-05-25T06:03:37.202Z,5.30
2019-05-25T06:06:08.328Z,8.55
2019-05-25T06:08:39.477Z,7.70
2019-05-25T06:11:10.785Z,6.10
2019-05-25T06:13:39.994Z,7.53
2019-05-25T06:16:10.972Z,6.75
2019-05-25T06:18:40.061Z,7.80
2019-05-25T06:21:10.709Z,7.00
2019-05-25T06:23:42.922Z,7.00
2019-05-25T06:26:14.647Z,6.90
2019-05-25T06:31:16.165Z,9.20
2019-05-25T06:33:47.507Z,6.00
2019-05-25T06:36:18.158Z,5.45
2019-05-25T06:38:49.421Z,6.10
2019-05-25T06:41:20.165Z,5.00
2019-05-25T06:43:51.042Z,5.40
2019-05-25T06:46:22.884Z,5.40
2019-05-25T06:48:53.932Z,4.70
2019-05-25T06:51:25.511Z,6.70
2019-05-25T06:53:57.504Z,6.30
2019-05-25T06:59:00.145Z,6.20
2019-05-25T07:01:31.283Z,8.10
2019-05-25T07:04:01.227Z,5.55
2019-05-25T07:06:30.396Z,7.15
2019-05-25T07:10:19.076Z,6.07
2019-05-25T07:12:48.485Z,6.10
2019-05-25T07:15:17.695Z,5.95
2019-05-25T07:17:47.686Z,6.30
2019-05-25T07:20:16.948Z,5.57
2019-05-25T07:22:46.715Z,5.50
2019-05-25T07:25:16.098Z,4.90
2019-05-25T07:27:58.202Z,4.70
2019-05-25T07:30:16.549Z,5.70
2019-05-25T07:32:46.085Z,4.50
2019-05-25T07:35:15.691Z,7.40
2019-05-25T07:37:45.678Z,7.47
2019-05-25T07:40:16.836Z,4.45
2019-05-25T07:42:48.605Z,6.60
2019-05-25T07:45:19.888Z,10.50
2019-05-25T07:47:51.454Z,5.60
2019-05-25T07:52:53.600Z,8.80
2019-05-25T07:55:24.694Z,7.50
2019-05-25T07:57:56.046Z,10.60
2019-05-25T08:00:27.215Z,8.85
2019-05-25T08:02:58.518Z,8.30
2019-05-25T08:05:29.793Z,9.70
2019-05-25T08:08:01.106Z,9.10
2019-05-25T08:10:32.619Z,8.70
2019-05-25T08:13:04.268Z,8.40
2019-05-25T08:15:35.310Z,10.30
2019-05-25T08:20:37.186Z,14.30
2019-05-25T08:23:08.680Z,10.55
2019-05-25T08:25:39.627Z,11.60
2019-05-25T08:28:11.588Z,10.60
2019-05-25T08:30:42.569Z,11.65
2019-05-25T08:33:14.190Z,11.30
2019-05-25T08:35:46.570Z,11.60
2019-05-25T08:38:17.377Z,7.90
2019-05-25T08:40:47.971Z,14.30
2019-05-25T08:43:19.537Z,9.95
2019-05-25T08:45:51.108Z,11.80
2019-05-25T08:48:22.215Z,9.10
2019-05-25T08:50:52.993Z,9.90
2019-05-25T08:53:39.983Z,8.65
2019-05-25T08:55:58.588Z,7.63
2019-05-25T08:58:30.146Z,8.20
2019-05-25T09:01:00.611Z,16.75
2019-05-25T09:03:31.912Z,9.25
2019-05-25T09:11:03.143Z,15.15
2019-05-25T09:13:34.020Z,12.80
2019-05-25T09:16:03.614Z,11.13
2019-05-25T09:18:32.759Z,11.40
2019-05-25T09:21:04.113Z,9.47
2019-05-25T09:23:35.618Z,9.45
2019-05-25T09:26:06.924Z,9.50
2019-05-25T09:28:38.455Z,9.95
2019-05-25T09:31:44.365Z,10.73
2019-05-25T09:34:14.071Z,10.10
2019-05-25T09:36:43.227Z,9.57
2019-05-25T09:39:12.909Z,8.30
2019-05-25T09:41:42.928Z,7.47
2019-05-25T09:44:12.423Z,12.30
2019-05-25T09:46:41.923Z,7.37
2019-05-25T09:49:11.798Z,10.47
2019-05-25T09:51:41.183Z,6.40
2019-05-25T09:54:12.755Z,6.90
2019-05-25T09:56:43.776Z,8.20
2019-05-25T09:59:20.174Z,8.20
2019-05-25T10:01:46.881Z,6.40
2019-05-25T10:04:18.102Z,9.00
2019-05-25T10:09:20.233Z,12.20
2019-05-25T10:11:52.274Z,9.90
2019-05-25T10:16:54.519Z,9.10
2019-05-25T10:21:59.352Z,13.10
2019-05-25T10:24:29.704Z,11.45
2019-05-25T10:27:01.239Z,11.45
2019-05-25T10:29:37.391Z,9.70
2019-05-25T10:32:04.947Z,9.70
2019-05-25T10:34:35.761Z,9.40
2019-05-25T10:39:47.540Z,11.90
2019-05-25T10:42:18.379Z,10.20
2019-05-25T10:44:49.386Z,11.00
2019-05-25T10:47:20.852Z,10.85
2019-05-25T10:49:52.329Z,11.10
2019-05-25T10:52:23.561Z,11.15
2019-05-25T10:54:55.343Z,10.25
2019-05-25T10:57:26.571Z,10.50
2019-05-25T10:59:56.404Z,12.10
2019-05-25T11:02:26.163Z,10.50
2019-05-25T11:04:55.785Z,10.80
2019-05-25T11:07:26.294Z,10.20
2019-05-25T11:09:56.370Z,9.70
2019-05-25T11:12:26.187Z,9.78
2019-05-25T11:14:55.518Z,11.70
2019-05-25T11:17:24.739Z,10.23
2019-05-25T11:19:54.146Z,11.87
2019-05-25T11:22:23.989Z,11.70
2019-05-25T11:24:53.363Z,10.10
2019-05-25T11:27:23.656Z,10.73
2019-05-25T11:30:07.938Z,10.93
2019-05-25T11:32:24.114Z,10.05
2019-05-25T11:34:53.482Z,12.40
2019-05-25T11:37:23.227Z,11.30
2019-05-25T11:39:52.795Z,9.60
2019-05-25T11:42:23.010Z,8.30
2019-05-25T11:44:52.017Z,6.40
2019-05-25T11:47:21.082Z,14.87
2019-05-25T11:49:50.343Z,6.65
2019-05-25T11:52:20.203Z,6.05
2019-05-25T11:54:49.701Z,5.25
2019-05-25T11:57:18.867Z,7.15
2019-05-25T11:59:48.080Z,7.65
2019-05-25T12:02:17.567Z,7.37
2019-05-25T12:04:47.101Z,7.40
2019-05-25T12:10:03.644Z,7.17
2019-05-25T12:12:36.372Z,7.45
2019-05-25T12:15:07.225Z,8.00
2019-05-25T12:17:37.446Z,10.60
2019-05-25T12:20:08.372Z,9.20
2019-05-25T12:22:39.477Z,10.70
2019-05-25T12:25:10.187Z,8.40
2019-05-25T12:27:41.705Z,8.60
2019-05-25T12:30:15.133Z,7.90
2019-05-25T12:32:46.686Z,9.70
2019-05-25T12:35:18.544Z,9.25
2019-05-25T12:37:50.772Z,15.10
2019-05-25T12:40:21.968Z,11.95
2019-05-25T12:42:53.193Z,11.00
2019-05-25T12:45:24.488Z,8.55
2019-05-25T12:47:56.183Z,12.70
2019-05-25T12:50:28.333Z,10.00
2019-05-25T12:52:59.859Z,8.65
2019-05-25T12:55:30.563Z,10.10
2019-05-25T12:58:03.378Z,7.00
2019-05-25T13:00:35.168Z,8.60
2019-05-25T13:03:06.750Z,6.70
2019-05-25T13:05:39.154Z,5.95
2019-05-25T13:08:11.185Z,5.30
2019-05-25T13:10:42.439Z,5.77
2019-05-25T13:13:15.135Z,8.40
2019-05-25T13:15:46.647Z,8.60
2019-05-25T13:18:17.701Z,7.70
2019-05-25T13:20:48.696Z,8.20
2019-05-25T13:23:20.175Z,6.20
2019-05-25T13:25:51.196Z,11.35
2019-05-25T13:28:23.433Z,7.43
2019-05-25T13:33:24.593Z,8.30
2019-05-25T13:35:55.941Z,6.80
2019-05-25T13:38:27.739Z,8.35
2019-05-25T13:40:58.134Z,6.93
2019-05-25T13:43:29.335Z,6.40
2019-05-25T13:46:00.432Z,15.05
2019-05-25T13:48:31.781Z,5.50
2019-05-25T13:53:33.573Z,7.50
2019-05-25T13:56:05.453Z,6.20
2019-05-25T13:58:39.112Z,5.90
2019-05-25T14:01:08.920Z,5.65
2019-05-25T14:03:40.518Z,11.07
2019-05-25T14:06:12.233Z,7.05
2019-05-25T14:11:15.036Z,5.85
2019-05-25T14:13:45.998Z,5.80
2019-05-25T14:16:17.213Z,5.60
2019-05-25T14:18:49.130Z,5.40
2019-05-25T14:21:20.105Z,6.03
2019-05-25T14:23:52.330Z,6.25
2019-05-25T14:26:24.383Z,5.70
2019-05-25T14:28:55.397Z,6.20
2019-05-25T14:33:57.568Z,5.75
2019-05-25T14:36:29.065Z,5.80
2019-05-25T14:39:00.522Z,5.80
2019-05-25T14:41:32.117Z,5.30
2019-05-25T14:44:02.408Z,5.35
2019-05-25T14:46:33.537Z,5.70
2019-05-25T14:49:04.341Z,5.15
2019-05-25T14:51:36.678Z,5.20
2019-05-25T14:54:08.386Z,7.67
2019-05-25T14:56:38.984Z,4.70
2019-05-25T14:59:10.196Z,5.10
2019-05-25T15:01:42.159Z,6.00
2019-05-25T15:04:14.359Z,4.50
2019-05-25T15:06:46.700Z,4.95
2019-05-25T15:09:18.448Z,4.80
2019-05-25T15:11:53.574Z,4.97
2019-05-25T15:14:22.484Z,4.50
2019-05-25T15:16:53.787Z,4.55
2019-05-25T15:19:24.888Z,4.30
2019-05-25T15:21:56.748Z,4.60
2019-05-25T15:24:28.548Z,4.45
2019-05-25T15:28:11.546Z,3.90
2019-05-25T15:30:43.324Z,4.90
2019-05-25T15:33:14.934Z,4.00
2019-05-25T15:35:46.571Z,4.90
2019-05-25T15:38:46.203Z,4.55
2019-05-25T15:41:17.234Z,4.80
2019-05-25T15:43:48.067Z,4.70
2019-05-25T15:46:19.152Z,8.30
2019-05-25T15:48:50.459Z,6.80
2019-05-25T15:51:22.671Z,6.07
2019-05-25T15:53:53.715Z,4.70
2019-05-25T15:56:24.528Z,7.20
2019-05-25T15:58:55.422Z,5.70
2019-05-25T16:03:58.256Z,8.60
2019-05-25T16:09:00.190Z,5.80
2019-05-25T16:11:32.368Z,7.00
2019-05-25T16:14:06.918Z,8.60
2019-05-25T16:16:37.711Z,6.95
2019-05-25T16:19:09.904Z,4.87
2019-05-25T16:21:41.135Z,5.00
2019-05-25T16:24:12.720Z,5.20
2019-05-25T16:26:46.300Z,6.00
2019-05-25T16:29:17.200Z,7.05
2019-05-25T16:34:19.172Z,11.05
2019-05-25T16:36:51.069Z,38.50
2019-05-25T16:39:22.266Z,63.90
2019-05-25T16:41:54.266Z,94.85
2019-05-25T16:46:35.168Z,123.40
2019-05-25T16:49:07.543Z,121.20
2019-05-25T16:51:39.618Z,131.75
2019-05-25T16:54:11.643Z,118.30
2019-05-25T16:56:42.880Z,126.60
2019-05-25T17:01:53.398Z,110.90
2019-05-25T17:04:24.541Z,95.20
2019-05-25T17:06:55.805Z,108.63
2019-05-25T17:09:26.768Z,94.85
2019-05-25T17:11:58.172Z,80.50
2019-05-25T17:14:29.741Z,71.20
2019-05-25T17:17:40.703Z,70.03
2019-05-25T17:20:12.645Z,57.40
2019-05-25T17:22:43.698Z,66.50
2019-05-25T17:25:14.578Z,52.60
2019-05-25T17:27:46.749Z,46.60
2019-05-25T17:33:04.671Z,43.60
2019-05-25T17:35:34.848Z,44.00
2019-05-25T17:38:06.136Z,41.20
2019-05-25T17:41:08.071Z,27.75
2019-05-25T17:43:37.876Z,30.30
2019-05-25T17:46:08.519Z,27.10
2019-05-25T17:48:40.382Z,30.40
2019-05-25T17:51:11.070Z,34.87
2019-05-25T17:53:41.646Z,33.60
2019-05-25T17:56:12.181Z,25.15
2019-05-25T17:58:44.640Z,24.20
2019-05-25T18:01:15.792Z,16.70
2019-05-25T18:05:41.787Z,17.60
2019-05-25T18:08:13.270Z,20.00
2019-05-25T18:10:54.209Z,18.20
2019-05-25T18:13:19.298Z,12.60
2019-05-25T18:15:50.727Z,20.40
2019-05-25T18:18:21.974Z,17.23
2019-05-25T18:23:25.307Z,14.55
2019-05-25T18:25:57.305Z,11.40
2019-05-25T18:28:28.280Z,12.30
2019-05-25T18:30:59.599Z,13.80
2019-05-25T18:36:00.580Z,10.35
2019-05-25T18:38:31.420Z,10.30
2019-05-25T18:41:33.208Z,9.20
2019-05-25T18:44:03.855Z,10.63
2019-05-25T18:46:33.579Z,9.30
2019-05-25T18:49:03.705Z,9.40
2019-05-25T18:51:35.273Z,6.10
2019-05-25T18:54:05.967Z,9.00
2019-05-25T18:56:36.111Z,11.43
2019-05-25T18:59:06.660Z,12.10
2019-05-25T19:01:38.179Z,7.23
2019-05-25T19:04:07.384Z,9.45
2019-05-25T19:06:37.360Z,7.40
2019-05-25T19:14:20.798Z,16.00
2019-05-25T19:16:50.925Z,9.70
2019-05-25T19:19:20.239Z,10.95
2019-05-25T19:21:50.021Z,10.35
2019-05-25T19:25:35.446Z,6.75
2019-05-25T19:30:32.849Z,7.00
2019-05-25T19:33:02.878Z,11.55
2019-05-25T19:35:32.889Z,15.50
2019-05-25T19:38:02.684Z,7.70
2019-05-25T19:41:29.651Z,6.60
2019-05-25T19:43:59.255Z,9.75
2019-05-25T19:48:55.034Z,11.30
2019-05-25T19:51:24.891Z,7.10
2019-05-25T19:53:56.531Z,6.20
2019-05-25T19:56:25.738Z,8.10
2019-05-25T19:58:55.911Z,4.60
2019-05-25T20:01:25.029Z,6.20
2019-05-25T20:03:57.451Z,7.00
2019-05-25T20:06:28.048Z,4.83
2019-05-25T20:08:57.367Z,5.10
2019-05-25T20:11:27.274Z,5.95
2019-05-25T20:13:57.138Z,4.70
2019-05-25T20:16:26.224Z,5.15
2019-05-25T20:21:24.276Z,6.10
2019-05-25T20:23:55.188Z,5.00
2019-05-25T20:26:24.033Z,4.80
2019-05-25T20:28:53.818Z,7.00
2019-05-25T20:31:23.434Z,5.40
2019-05-25T20:33:53.162Z,7.40
2019-05-25T20:36:22.969Z,5.00
2019-05-25T20:39:11.714Z,15.30
2019-05-25T20:42:00.523Z,270.50
2019-05-25T20:44:49.359Z,64.40
2019-05-25T20:47:38.893Z,45.30
2019-05-25T20:50:27.899Z,19.00
2019-05-25T20:53:17.021Z,22.20
2019-05-25T20:56:06.714Z,17.95
2019-05-25T20:58:54.649Z,11.33
2019-05-25T21:01:43.475Z,14.70
2019-05-25T21:04:32.438Z,26.15
2019-05-25T21:07:21.290Z,24.40
2019-05-25T21:10:10.176Z,14.65
2019-05-25T21:14:23.698Z,8.27
2019-05-25T21:16:53.603Z,25.90
2019-05-25T21:19:24.131Z,8.00
2019-05-25T21:21:52.926Z,7.70
2019-05-25T21:24:22.886Z,8.60
2019-05-25T21:26:51.031Z,9.90
2019-05-25T21:31:51.039Z,7.22
2019-05-25T21:34:20.995Z,8.20
2019-05-25T21:36:50.448Z,6.95
2019-05-25T21:39:20.070Z,8.60
2019-05-25T21:41:48.750Z,7.85
2019-05-25T21:44:18.390Z,6.70
2019-05-25T21:46:48.578Z,7.30
2019-05-25T21:49:19.903Z,8.50
2019-05-25T21:51:51.269Z,7.55
2019-05-25T21:56:53.694Z,6.90
2019-05-25T22:01:54.176Z,6.50
2019-05-25T22:04:24.944Z,8.25
2019-05-25T22:06:56.207Z,8.65
2019-05-25T22:09:26.472Z,10.15
2019-05-25T22:14:27.586Z,7.45
2019-05-25T22:19:26.330Z,6.80
2019-05-25T22:21:56.589Z,6.70
2019-05-25T22:24:24.915Z,7.20
2019-05-25T22:26:54.041Z,6.70
2019-05-25T22:29:23.838Z,8.90
2019-05-25T22:31:53.037Z,9.20
2019-05-25T22:34:23.484Z,7.55
2019-05-25T22:36:52.881Z,7.00
2019-05-25T22:39:22.073Z,6.10
2019-05-25T22:46:24.055Z,7.70
2019-05-25T22:48:53.811Z,6.60
2019-05-25T22:51:23.272Z,6.25
2019-05-25T22:53:53.628Z,7.23
2019-05-25T22:56:23.109Z,6.10
2019-05-25T22:58:52.560Z,6.23
2019-05-25T23:01:55.528Z,6.25
2019-05-25T23:04:25.018Z,6.30
2019-05-25T23:06:58.255Z,9.13
2019-05-25T23:09:25.903Z,6.80
2019-05-25T23:11:55.485Z,6.30
2019-05-25T23:14:25.196Z,7.60
2019-05-25T23:16:53.806Z,8.80
2019-05-25T23:19:24.096Z,6.10
2019-05-25T23:21:53.520Z,7.00
2019-05-25T23:24:22.574Z,5.70
2019-05-25T23:29:20.588Z,5.70
2019-05-25T23:34:18.978Z,6.50
2019-05-25T23:36:49.565Z,6.10
2019-05-25T23:39:18.948Z,6.50
2019-05-25T23:44:16.364Z,8.10
2019-05-25T23:46:45.362Z,6.40
2019-05-25T23:49:14.671Z,5.80
2019-05-25T23:51:43.679Z,6.00
2019-05-25T23:54:13.218Z,6.00
2019-05-25T23:56:42.740Z,6.80
2019-05-25T23:59:12.195Z,5.90
